sensor_id;sensor_type;location;lat;lon;timestamp;P1;durP1;ratioP1;P2;durP2;ratioP2
25231;SDS011;13176;51.140;6.290;2022-07-03T00:01:35;22.90;;;21.67;;
25231;SDS011;13176;51.140;6.290;2022-07-03T00:04:02;24.52;;;23.10;;
25231;SDS011;13176;51.140;6.290;2022-07-03T00:06:30;25.63;;;24.27;;
25231;SDS011;13176;51.140;6.290;2022-07-03T00:08:58;27.75;;;25.77;;
25231;SDS011;13176;51.140;6.290;2022-07-03T00:11:25;26.38;;;24.98;;
25231;SDS011;13176;51.140;6.290;2022-07-03T00:13:52;30.67;;;28.73;;
25231;SDS011;13176;51.140;6.290;2022-07-03T00:16:18;26.60;;;25.20;;
25231;SDS011;13176;51.140;6.290;2022-07-03T00:18:45;22.70;;;21.50;;
25231;SDS011;13176;51.140;6.290;2022-07-03T00:21:12;25.13;;;23.77;;
25231;SDS011;13176;51.140;6.290;2022-07-03T00:23:52;23.95;;;22.60;;
25231;SDS011;13176;51.140;6.290;2022-07-03T00:26:33;24.70;;;23.42;;
25231;SDS011;13176;51.140;6.290;2022-07-03T00:29:02;23.10;;;21.67;;
25231;SDS011;13176;51.140;6.290;2022-07-03T00:31:29;23.50;;;22.20;;
25231;SDS011;13176;51.140;6.290;2022-07-03T00:33:59;20.77;;;19.67;;
25231;SDS011;13176;51.140;6.290;2022-07-03T00:36:29;21.02;;;19.92;;
25231;SDS011;13176;51.140;6.290;2022-07-03T00:38:59;21.75;;;20.52;;
25231;SDS011;13176;51.140;6.290;2022-07-03T00:41:28;20.13;;;19.13;;
25231;SDS011;13176;51.140;6.290;2022-07-03T00:43:56;21.75;;;20.65;;
25231;SDS011;13176;51.140;6.290;2022-07-03T00:46:23;23.00;;;21.80;;
25231;SDS011;13176;51.140;6.290;2022-07-03T00:48:52;23.98;;;22.75;;
25231;SDS011;13176;51.140;6.290;2022-07-03T00:51:21;23.02;;;21.83;;
25231;SDS011;13176;51.140;6.290;2022-07-03T00:53:51;23.35;;;22.05;;
25231;SDS011;13176;51.140;6.290;2022-07-03T00:56:19;25.40;;;23.65;;
25231;SDS011;13176;51.140;6.290;2022-07-03T00:58:52;22.90;;;21.52;;
25231;SDS011;13176;51.140;6.290;2022-07-03T01:01:21;23.38;;;22.17;;
25231;SDS011;13176;51.140;6.290;2022-07-03T01:03:53;22.10;;;20.98;;
25231;SDS011;13176;51.140;6.290;2022-07-03T01:06:39;26.83;;;25.45;;
25231;SDS011;13176;51.140;6.290;2022-07-03T01:09:16;30.33;;;28.38;;
25231;SDS011;13176;51.140;6.290;2022-07-03T01:11:56;33.65;;;31.75;;
25231;SDS011;13176;51.140;6.290;2022-07-03T01:17:24;38.55;;;36.45;;
25231;SDS011;13176;51.140;6.290;2022-07-03T01:20:00;37.53;;;35.60;;
25231;SDS011;13176;51.140;6.290;2022-07-03T01:22:34;40.83;;;38.67;;
25231;SDS011;13176;51.140;6.290;2022-07-03T01:25:23;42.72;;;40.42;;
25231;SDS011;13176;51.140;6.290;2022-07-03T01:30:40;40.10;;;37.90;;
25231;SDS011;13176;51.140;6.290;2022-07-03T01:35:57;43.85;;;41.25;;
25231;SDS011;13176;51.140;6.290;2022-07-03T01:38:32;35.28;;;33.30;;
25231;SDS011;13176;51.140;6.290;2022-07-03T01:41:03;41.28;;;38.88;;
25231;SDS011;13176;51.140;6.290;2022-07-03T01:43:31;43.55;;;41.15;;
25231;SDS011;13176;51.140;6.290;2022-07-03T01:46:01;44.00;;;41.53;;
25231;SDS011;13176;51.140;6.290;2022-07-03T01:48:29;39.75;;;37.47;;
25231;SDS011;13176;51.140;6.290;2022-07-03T01:50:57;37.30;;;35.20;;
25231;SDS011;13176;51.140;6.290;2022-07-03T01:53:25;40.47;;;38.08;;
25231;SDS011;13176;51.140;6.290;2022-07-03T01:55:58;42.58;;;40.25;;
25231;SDS011;13176;51.140;6.290;2022-07-03T01:58:26;38.85;;;36.67;;
25231;SDS011;13176;51.140;6.290;2022-07-03T02:03:27;40.83;;;38.65;;
25231;SDS011;13176;51.140;6.290;2022-07-03T02:09:06;47.50;;;44.88;;
25231;SDS011;13176;51.140;6.290;2022-07-03T02:11:53;43.83;;;41.50;;
25231;SDS011;13176;51.140;6.290;2022-07-03T02:14:24;45.88;;;43.28;;
25231;SDS011;13176;51.140;6.290;2022-07-03T02:19:43;36.60;;;34.70;;
25231;SDS011;13176;51.140;6.290;2022-07-03T02:22:20;38.38;;;36.22;;
25231;SDS011;13176;51.140;6.290;2022-07-03T02:24:51;35.88;;;33.78;;
25231;SDS011;13176;51.140;6.290;2022-07-03T02:27:22;33.55;;;31.55;;
25231;SDS011;13176;51.140;6.290;2022-07-03T02:30:06;34.60;;;32.50;;
25231;SDS011;13176;51.140;6.290;2022-07-03T02:32:36;34.60;;;32.53;;
25231;SDS011;13176;51.140;6.290;2022-07-03T02:35:12;40.63;;;38.28;;
25231;SDS011;13176;51.140;6.290;2022-07-03T02:37:45;39.75;;;37.63;;
25231;SDS011;13176;51.140;6.290;2022-07-03T02:40:20;43.45;;;41.15;;
25231;SDS011;13176;51.140;6.290;2022-07-03T02:45:29;38.13;;;36.03;;
25231;SDS011;13176;51.140;6.290;2022-07-03T02:48:06;32.20;;;30.40;;
25231;SDS011;13176;51.140;6.290;2022-07-03T02:50:40;31.40;;;29.70;;
25231;SDS011;13176;51.140;6.290;2022-07-03T02:53:15;32.83;;;31.13;;
25231;SDS011;13176;51.140;6.290;2022-07-03T02:55:51;32.03;;;30.23;;
25231;SDS011;13176;51.140;6.290;2022-07-03T02:58:47;32.03;;;30.23;;
25231;SDS011;13176;51.140;6.290;2022-07-03T03:07:08;35.83;;;33.72;;
25231;SDS011;13176;51.140;6.290;2022-07-03T03:09:41;35.13;;;33.22;;
25231;SDS011;13176;51.140;6.290;2022-07-03T03:12:10;37.83;;;35.83;;
25231;SDS011;13176;51.140;6.290;2022-07-03T03:14:42;34.50;;;32.70;;
25231;SDS011;13176;51.140;6.290;2022-07-03T03:17:24;31.77;;;29.95;;
25231;SDS011;13176;51.140;6.290;2022-07-03T03:19:55;32.67;;;30.83;;
25231;SDS011;13176;51.140;6.290;2022-07-03T03:22:28;35.17;;;32.97;;
25231;SDS011;13176;51.140;6.290;2022-07-03T03:25:10;31.30;;;29.60;;
25231;SDS011;13176;51.140;6.290;2022-07-03T03:27:36;35.55;;;33.55;;
25231;SDS011;13176;51.140;6.290;2022-07-03T03:30:03;35.55;;;33.55;;
25231;SDS011;13176;51.140;6.290;2022-07-03T03:32:34;34.88;;;32.92;;
25231;SDS011;13176;51.140;6.290;2022-07-03T03:35:02;34.63;;;32.42;;
25231;SDS011;13176;51.140;6.290;2022-07-03T03:37:29;29.67;;;27.98;;
25231;SDS011;13176;51.140;6.290;2022-07-03T03:39:56;32.60;;;30.60;;
25231;SDS011;13176;51.140;6.290;2022-07-03T03:42:23;42.80;;;40.47;;
25231;SDS011;13176;51.140;6.290;2022-07-03T03:44:50;36.75;;;34.33;;
25231;SDS011;13176;51.140;6.290;2022-07-03T03:47:16;36.35;;;34.35;;
25231;SDS011;13176;51.140;6.290;2022-07-03T03:49:46;47.22;;;44.22;;
25231;SDS011;13176;51.140;6.290;2022-07-03T03:52:13;30.60;;;28.73;;
25231;SDS011;13176;51.140;6.290;2022-07-03T03:54:39;37.50;;;35.50;;
25231;SDS011;13176;51.140;6.290;2022-07-03T03:57:19;32.65;;;30.95;;
25231;SDS011;13176;51.140;6.290;2022-07-03T03:59:49;33.15;;;31.25;;
25231;SDS011;13176;51.140;6.290;2022-07-03T04:02:17;32.97;;;31.05;;
25231;SDS011;13176;51.140;6.290;2022-07-03T04:04:44;30.70;;;29.10;;
25231;SDS011;13176;51.140;6.290;2022-07-03T04:07:11;32.67;;;30.88;;
25231;SDS011;13176;51.140;6.290;2022-07-03T04:09:38;37.63;;;35.53;;
25231;SDS011;13176;51.140;6.290;2022-07-03T04:12:05;34.55;;;32.45;;
25231;SDS011;13176;51.140;6.290;2022-07-03T04:14:31;31.52;;;29.52;;
25231;SDS011;13176;51.140;6.290;2022-07-03T04:16:58;32.63;;;30.63;;
25231;SDS011;13176;51.140;6.290;2022-07-03T04:19:24;41.65;;;39.22;;
25231;SDS011;13176;51.140;6.290;2022-07-03T04:21:51;41.78;;;39.38;;
25231;SDS011;13176;51.140;6.290;2022-07-03T04:24:18;38.15;;;35.88;;
25231;SDS011;13176;51.140;6.290;2022-07-03T04:26:44;57.83;;;54.50;;
25231;SDS011;13176;51.140;6.290;2022-07-03T04:29:11;49.30;;;46.53;;
25231;SDS011;13176;51.140;6.290;2022-07-03T04:31:38;52.95;;;49.92;;
25231;SDS011;13176;51.140;6.290;2022-07-03T04:34:04;55.33;;;52.17;;
25231;SDS011;13176;51.140;6.290;2022-07-03T04:36:31;44.85;;;42.40;;
25231;SDS011;13176;51.140;6.290;2022-07-03T04:38:58;51.17;;;48.08;;
25231;SDS011;13176;51.140;6.290;2022-07-03T04:41:24;49.80;;;46.35;;
25231;SDS011;13176;51.140;6.290;2022-07-03T04:43:51;52.65;;;49.75;;
25231;SDS011;13176;51.140;6.290;2022-07-03T04:46:17;55.53;;;52.35;;
25231;SDS011;13176;51.140;6.290;2022-07-03T04:48:44;55.10;;;51.95;;
25231;SDS011;13176;51.140;6.290;2022-07-03T04:51:12;55.67;;;52.42;;
25231;SDS011;13176;51.140;6.290;2022-07-03T04:53:38;60.35;;;57.03;;
25231;SDS011;13176;51.140;6.290;2022-07-03T04:56:05;62.53;;;58.85;;
25231;SDS011;13176;51.140;6.290;2022-07-03T04:58:31;58.92;;;55.50;;
25231;SDS011;13176;51.140;6.290;2022-07-03T05:00:58;60.88;;;57.47;;
25231;SDS011;13176;51.140;6.290;2022-07-03T05:03:24;57.25;;;53.97;;
25231;SDS011;13176;51.140;6.290;2022-07-03T05:05:51;60.33;;;56.70;;
25231;SDS011;13176;51.140;6.290;2022-07-03T05:08:18;54.63;;;51.42;;
25231;SDS011;13176;51.140;6.290;2022-07-03T05:10:46;62.88;;;59.45;;
25231;SDS011;13176;51.140;6.290;2022-07-03T05:13:12;62.17;;;58.67;;
25231;SDS011;13176;51.140;6.290;2022-07-03T05:15:42;55.13;;;51.83;;
25231;SDS011;13176;51.140;6.290;2022-07-03T05:18:08;60.72;;;57.17;;
25231;SDS011;13176;51.140;6.290;2022-07-03T05:20:35;52.80;;;49.85;;
25231;SDS011;13176;51.140;6.290;2022-07-03T05:23:01;48.05;;;45.15;;
25231;SDS011;13176;51.140;6.290;2022-07-03T05:25:29;45.13;;;42.28;;
25231;SDS011;13176;51.140;6.290;2022-07-03T05:27:57;45.90;;;43.38;;
25231;SDS011;13176;51.140;6.290;2022-07-03T05:30:24;34.42;;;32.50;;
25231;SDS011;13176;51.140;6.290;2022-07-03T05:32:52;32.22;;;30.13;;
25231;SDS011;13176;51.140;6.290;2022-07-03T05:35:22;31.15;;;29.35;;
25231;SDS011;13176;51.140;6.290;2022-07-03T05:37:48;37.05;;;34.70;;
25231;SDS011;13176;51.140;6.290;2022-07-03T05:40:15;28.42;;;26.65;;
25231;SDS011;13176;51.140;6.290;2022-07-03T05:42:41;27.65;;;26.08;;
25231;SDS011;13176;51.140;6.290;2022-07-03T05:45:08;28.20;;;26.58;;
25231;SDS011;13176;51.140;6.290;2022-07-03T05:47:35;24.35;;;22.95;;
25231;SDS011;13176;51.140;6.290;2022-07-03T05:50:02;26.10;;;24.45;;
25231;SDS011;13176;51.140;6.290;2022-07-03T05:52:29;27.40;;;25.70;;
25231;SDS011;13176;51.140;6.290;2022-07-03T05:54:55;28.60;;;26.88;;
25231;SDS011;13176;51.140;6.290;2022-07-03T05:57:22;28.85;;;26.85;;
25231;SDS011;13176;51.140;6.290;2022-07-03T05:59:48;27.90;;;26.40;;
25231;SDS011;13176;51.140;6.290;2022-07-03T06:02:15;28.58;;;26.67;;
25231;SDS011;13176;51.140;6.290;2022-07-03T06:04:41;29.02;;;27.33;;
25231;SDS011;13176;51.140;6.290;2022-07-03T06:07:08;27.92;;;26.23;;
25231;SDS011;13176;51.140;6.290;2022-07-03T06:09:34;32.22;;;30.38;;
25231;SDS011;13176;51.140;6.290;2022-07-03T06:12:01;32.58;;;30.67;;
25231;SDS011;13176;51.140;6.290;2022-07-03T06:14:27;35.33;;;33.17;;
25231;SDS011;13176;51.140;6.290;2022-07-03T06:16:54;33.05;;;31.25;;
25231;SDS011;13176;51.140;6.290;2022-07-03T06:19:20;31.25;;;29.42;;
25231;SDS011;13176;51.140;6.290;2022-07-03T06:21:47;33.00;;;31.20;;
25231;SDS011;13176;51.140;6.290;2022-07-03T06:24:13;32.55;;;30.50;;
25231;SDS011;13176;51.140;6.290;2022-07-03T06:26:40;32.50;;;30.70;;
25231;SDS011;13176;51.140;6.290;2022-07-03T06:29:07;27.55;;;25.92;;
25231;SDS011;13176;51.140;6.290;2022-07-03T06:31:33;27.65;;;25.75;;
25231;SDS011;13176;51.140;6.290;2022-07-03T06:34:00;25.88;;;23.85;;
25231;SDS011;13176;51.140;6.290;2022-07-03T06:36:26;21.13;;;19.73;;
25231;SDS011;13176;51.140;6.290;2022-07-03T06:38:53;20.08;;;18.98;;
25231;SDS011;13176;51.140;6.290;2022-07-03T06:41:20;20.23;;;18.85;;
25231;SDS011;13176;51.140;6.290;2022-07-03T06:43:46;23.98;;;22.27;;
25231;SDS011;13176;51.140;6.290;2022-07-03T06:46:13;23.98;;;22.63;;
25231;SDS011;13176;51.140;6.290;2022-07-03T06:48:39;21.50;;;20.38;;
25231;SDS011;13176;51.140;6.290;2022-07-03T06:51:06;20.48;;;19.40;;
25231;SDS011;13176;51.140;6.290;2022-07-03T06:53:32;22.58;;;21.27;;
25231;SDS011;13176;51.140;6.290;2022-07-03T06:55:59;21.27;;;20.17;;
25231;SDS011;13176;51.140;6.290;2022-07-03T06:58:25;18.42;;;17.35;;
25231;SDS011;13176;51.140;6.290;2022-07-03T07:00:52;19.67;;;18.38;;
25231;SDS011;13176;51.140;6.290;2022-07-03T07:03:18;21.33;;;19.85;;
25231;SDS011;13176;51.140;6.290;2022-07-03T07:05:45;19.00;;;17.90;;
25231;SDS011;13176;51.140;6.290;2022-07-03T07:08:12;19.48;;;18.42;;
25231;SDS011;13176;51.140;6.290;2022-07-03T07:10:38;22.02;;;20.73;;
25231;SDS011;13176;51.140;6.290;2022-07-03T07:13:04;22.00;;;20.60;;
25231;SDS011;13176;51.140;6.290;2022-07-03T07:15:31;20.92;;;19.52;;
25231;SDS011;13176;51.140;6.290;2022-07-03T07:17:58;20.08;;;18.80;;
25231;SDS011;13176;51.140;6.290;2022-07-03T07:20:24;19.65;;;18.23;;
25231;SDS011;13176;51.140;6.290;2022-07-03T07:22:51;21.80;;;20.67;;
25231;SDS011;13176;51.140;6.290;2022-07-03T07:25:17;21.77;;;20.35;;
25231;SDS011;13176;51.140;6.290;2022-07-03T07:27:44;18.63;;;17.50;;
25231;SDS011;13176;51.140;6.290;2022-07-03T07:30:10;20.75;;;19.50;;
25231;SDS011;13176;51.140;6.290;2022-07-03T07:32:37;17.45;;;16.30;;
25231;SDS011;13176;51.140;6.290;2022-07-03T07:35:04;20.52;;;19.08;;
25231;SDS011;13176;51.140;6.290;2022-07-03T07:37:31;18.95;;;17.55;;
25231;SDS011;13176;51.140;6.290;2022-07-03T07:39:58;22.58;;;21.17;;
25231;SDS011;13176;51.140;6.290;2022-07-03T07:42:24;17.17;;;16.10;;
25231;SDS011;13176;51.140;6.290;2022-07-03T07:44:51;19.92;;;18.50;;
25231;SDS011;13176;51.140;6.290;2022-07-03T07:47:17;17.77;;;16.77;;
25231;SDS011;13176;51.140;6.290;2022-07-03T07:49:44;19.65;;;18.20;;
25231;SDS011;13176;51.140;6.290;2022-07-03T07:52:11;21.15;;;19.85;;
25231;SDS011;13176;51.140;6.290;2022-07-03T07:54:37;22.00;;;20.30;;
25231;SDS011;13176;51.140;6.290;2022-07-03T07:57:04;18.33;;;16.88;;
25231;SDS011;13176;51.140;6.290;2022-07-03T07:59:31;23.05;;;21.35;;
25231;SDS011;13176;51.140;6.290;2022-07-03T08:01:57;20.10;;;18.83;;
25231;SDS011;13176;51.140;6.290;2022-07-03T08:04:42;23.08;;;21.38;;
25231;SDS011;13176;51.140;6.290;2022-07-03T08:07:27;22.92;;;21.48;;
25231;SDS011;13176;51.140;6.290;2022-07-03T08:09:53;23.35;;;22.05;;
25231;SDS011;13176;51.140;6.290;2022-07-03T08:12:20;26.52;;;24.98;;
25231;SDS011;13176;51.140;6.290;2022-07-03T08:14:46;25.17;;;23.77;;
25231;SDS011;13176;51.140;6.290;2022-07-03T08:17:13;25.67;;;23.95;;
25231;SDS011;13176;51.140;6.290;2022-07-03T08:19:40;25.92;;;24.52;;
25231;SDS011;13176;51.140;6.290;2022-07-03T08:22:07;25.92;;;24.42;;
25231;SDS011;13176;51.140;6.290;2022-07-03T08:24:34;19.27;;;18.13;;
25231;SDS011;13176;51.140;6.290;2022-07-03T08:27:01;19.73;;;18.52;;
25231;SDS011;13176;51.140;6.290;2022-07-03T08:29:27;18.88;;;17.88;;
25231;SDS011;13176;51.140;6.290;2022-07-03T08:32:04;18.55;;;17.52;;
25231;SDS011;13176;51.140;6.290;2022-07-03T08:34:33;17.58;;;16.58;;
25231;SDS011;13176;51.140;6.290;2022-07-03T08:37:00;17.73;;;16.65;;
25231;SDS011;13176;51.140;6.290;2022-07-03T08:39:26;12.07;;;11.38;;
25231;SDS011;13176;51.140;6.290;2022-07-03T08:41:53;13.43;;;12.57;;
25231;SDS011;13176;51.140;6.290;2022-07-03T08:44:21;11.40;;;10.68;;
25231;SDS011;13176;51.140;6.290;2022-07-03T08:46:49;10.93;;;10.02;;
25231;SDS011;13176;51.140;6.290;2022-07-03T08:49:17;17.13;;;16.15;;
25231;SDS011;13176;51.140;6.290;2022-07-03T08:51:45;15.70;;;14.70;;
25231;SDS011;13176;51.140;6.290;2022-07-03T08:54:12;10.35;;;9.70;;
25231;SDS011;13176;51.140;6.290;2022-07-03T08:56:39;10.63;;;9.95;;
25231;SDS011;13176;51.140;6.290;2022-07-03T08:59:06;13.43;;;11.00;;
25231;SDS011;13176;51.140;6.290;2022-07-03T09:01:34;15.07;;;14.23;;
25231;SDS011;13176;51.140;6.290;2022-07-03T09:04:11;16.05;;;15.13;;
25231;SDS011;13176;51.140;6.290;2022-07-03T09:06:40;14.75;;;13.50;;
25231;SDS011;13176;51.140;6.290;2022-07-03T09:09:07;16.17;;;15.07;;
25231;SDS011;13176;51.140;6.290;2022-07-03T09:11:37;14.25;;;13.35;;
25231;SDS011;13176;51.140;6.290;2022-07-03T09:14:04;15.02;;;14.02;;
25231;SDS011;13176;51.140;6.290;2022-07-03T09:16:36;15.30;;;14.32;;
25231;SDS011;13176;51.140;6.290;2022-07-03T09:19:03;14.77;;;13.77;;
25231;SDS011;13176;51.140;6.290;2022-07-03T09:21:40;15.30;;;14.07;;
25231;SDS011;13176;51.140;6.290;2022-07-03T09:24:08;18.20;;;17.27;;
25231;SDS011;13176;51.140;6.290;2022-07-03T09:26:50;17.02;;;15.88;;
25231;SDS011;13176;51.140;6.290;2022-07-03T09:29:18;12.15;;;11.20;;
25231;SDS011;13176;51.140;6.290;2022-07-03T09:31:44;10.82;;;10.15;;
25231;SDS011;13176;51.140;6.290;2022-07-03T09:34:21;13.63;;;12.82;;
25231;SDS011;13176;51.140;6.290;2022-07-03T09:36:49;15.63;;;14.52;;
25231;SDS011;13176;51.140;6.290;2022-07-03T09:42:05;12.48;;;11.57;;
25231;SDS011;13176;51.140;6.290;2022-07-03T09:47:06;16.23;;;15.02;;
25231;SDS011;13176;51.140;6.290;2022-07-03T09:52:34;16.50;;;15.40;;
25231;SDS011;13176;51.140;6.290;2022-07-03T09:57:39;14.98;;;14.18;;
25231;SDS011;13176;51.140;6.290;2022-07-03T10:02:59;13.57;;;12.57;;
25231;SDS011;13176;51.140;6.290;2022-07-03T10:05:28;14.20;;;13.18;;
25231;SDS011;13176;51.140;6.290;2022-07-03T10:08:02;12.65;;;11.90;;
25231;SDS011;13176;51.140;6.290;2022-07-03T10:10:29;10.55;;;9.80;;
25231;SDS011;13176;51.140;6.290;2022-07-03T10:12:59;13.27;;;12.38;;
25231;SDS011;13176;51.140;6.290;2022-07-03T10:15:27;13.85;;;13.05;;
25231;SDS011;13176;51.140;6.290;2022-07-03T10:17:56;12.85;;;12.18;;
25231;SDS011;13176;51.140;6.290;2022-07-03T10:20:27;13.25;;;12.45;;
25231;SDS011;13176;51.140;6.290;2022-07-03T10:22:56;12.13;;;11.43;;
25231;SDS011;13176;51.140;6.290;2022-07-03T10:25:23;14.00;;;13.00;;
25231;SDS011;13176;51.140;6.290;2022-07-03T10:27:50;13.68;;;12.77;;
25231;SDS011;13176;51.140;6.290;2022-07-03T10:30:17;16.10;;;15.05;;
25231;SDS011;13176;51.140;6.290;2022-07-03T10:32:45;12.90;;;12.13;;
25231;SDS011;13176;51.140;6.290;2022-07-03T10:35:15;13.95;;;13.05;;
25231;SDS011;13176;51.140;6.290;2022-07-03T10:40:54;11.77;;;10.88;;
25231;SDS011;13176;51.140;6.290;2022-07-03T10:43:46;10.40;;;9.90;;
25231;SDS011;13176;51.140;6.290;2022-07-03T10:46:32;10.82;;;10.23;;
25231;SDS011;13176;51.140;6.290;2022-07-03T10:49:00;12.45;;;11.65;;
25231;SDS011;13176;51.140;6.290;2022-07-03T10:51:30;11.48;;;10.73;;
25231;SDS011;13176;51.140;6.290;2022-07-03T11:07:25;10.50;;;9.90;;
25231;SDS011;13176;51.140;6.290;2022-07-03T11:23:18;9.95;;;9.45;;
25231;SDS011;13176;51.140;6.290;2022-07-03T11:36:10;13.00;;;12.32;;
25231;SDS011;13176;51.140;6.290;2022-07-03T11:38:37;13.07;;;12.38;;
25231;SDS011;13176;51.140;6.290;2022-07-03T11:41:08;12.43;;;11.73;;
25231;SDS011;13176;51.140;6.290;2022-07-03T11:43:36;13.00;;;12.30;;
25231;SDS011;13176;51.140;6.290;2022-07-03T11:46:03;11.57;;;10.98;;
25231;SDS011;13176;51.140;6.290;2022-07-03T11:48:30;11.45;;;10.85;;
25231;SDS011;13176;51.140;6.290;2022-07-03T11:51:01;11.57;;;11.00;;
25231;SDS011;13176;51.140;6.290;2022-07-03T11:53:33;13.20;;;12.35;;
25231;SDS011;13176;51.140;6.290;2022-07-03T11:56:08;14.15;;;13.40;;
25231;SDS011;13176;51.140;6.290;2022-07-03T11:58:44;14.38;;;13.55;;
25231;SDS011;13176;51.140;6.290;2022-07-03T12:03:48;14.40;;;13.60;;
25231;SDS011;13176;51.140;6.290;2022-07-03T12:06:15;16.17;;;15.32;;
25231;SDS011;13176;51.140;6.290;2022-07-03T12:08:43;16.98;;;16.10;;
25231;SDS011;13176;51.140;6.290;2022-07-03T12:11:13;18.50;;;17.35;;
25231;SDS011;13176;51.140;6.290;2022-07-03T12:13:41;17.70;;;16.80;;
25231;SDS011;13176;51.140;6.290;2022-07-03T12:18:50;17.67;;;16.77;;
25231;SDS011;13176;51.140;6.290;2022-07-03T12:21:18;18.30;;;17.30;;
25231;SDS011;13176;51.140;6.290;2022-07-03T12:23:47;15.85;;;14.90;;
25231;SDS011;13176;51.140;6.290;2022-07-03T12:26:34;16.05;;;15.15;;
25231;SDS011;13176;51.140;6.290;2022-07-03T12:29:03;17.05;;;16.15;;
25231;SDS011;13176;51.140;6.290;2022-07-03T12:31:31;17.20;;;16.30;;
25231;SDS011;13176;51.140;6.290;2022-07-03T12:33:59;17.05;;;16.25;;
25231;SDS011;13176;51.140;6.290;2022-07-03T12:36:27;16.30;;;15.50;;
25231;SDS011;13176;51.140;6.290;2022-07-03T12:38:56;16.58;;;15.68;;
25231;SDS011;13176;51.140;6.290;2022-07-03T12:41:24;18.10;;;17.20;;
25231;SDS011;13176;51.140;6.290;2022-07-03T12:43:53;18.58;;;17.55;;
25231;SDS011;13176;51.140;6.290;2022-07-03T12:46:21;17.25;;;16.45;;
25231;SDS011;13176;51.140;6.290;2022-07-03T12:49:00;17.70;;;16.80;;
25231;SDS011;13176;51.140;6.290;2022-07-03T12:54:06;13.57;;;12.88;;
25231;SDS011;13176;51.140;6.290;2022-07-03T12:56:33;13.85;;;13.18;;
25231;SDS011;13176;51.140;6.290;2022-07-03T12:59:00;13.90;;;13.20;;
25231;SDS011;13176;51.140;6.290;2022-07-03T13:04:12;11.13;;;10.60;;
25231;SDS011;13176;51.140;6.290;2022-07-03T13:06:41;11.95;;;11.35;;
25231;SDS011;13176;51.140;6.290;2022-07-03T13:09:08;13.52;;;12.73;;
25231;SDS011;13176;51.140;6.290;2022-07-03T13:11:36;17.55;;;16.40;;
25231;SDS011;13176;51.140;6.290;2022-07-03T13:14:10;12.68;;;11.98;;
25231;SDS011;13176;51.140;6.290;2022-07-03T13:21:44;15.65;;;14.75;;
25231;SDS011;13176;51.140;6.290;2022-07-03T13:24:11;18.23;;;17.33;;
25231;SDS011;13176;51.140;6.290;2022-07-03T13:26:39;18.23;;;17.23;;
25231;SDS011;13176;51.140;6.290;2022-07-03T13:29:05;17.75;;;16.80;;
25231;SDS011;13176;51.140;6.290;2022-07-03T13:31:32;24.02;;;22.70;;
25231;SDS011;13176;51.140;6.290;2022-07-03T13:33:58;19.85;;;18.85;;
25231;SDS011;13176;51.140;6.290;2022-07-03T13:36:25;20.02;;;19.02;;
25231;SDS011;13176;51.140;6.290;2022-07-03T13:38:52;19.17;;;18.17;;
25231;SDS011;13176;51.140;6.290;2022-07-03T13:41:19;20.63;;;19.48;;
25231;SDS011;13176;51.140;6.290;2022-07-03T13:43:47;19.05;;;17.90;;
25231;SDS011;13176;51.140;6.290;2022-07-03T13:46:15;17.77;;;16.85;;
25231;SDS011;13176;51.140;6.290;2022-07-03T13:48:42;26.88;;;25.45;;
25231;SDS011;13176;51.140;6.290;2022-07-03T13:51:08;25.42;;;24.13;;
25231;SDS011;13176;51.140;6.290;2022-07-03T13:53:35;24.77;;;23.38;;
25231;SDS011;13176;51.140;6.290;2022-07-03T13:56:02;21.45;;;20.25;;
25231;SDS011;13176;51.140;6.290;2022-07-03T13:58:28;18.50;;;17.40;;
25231;SDS011;13176;51.140;6.290;2022-07-03T14:00:55;17.80;;;16.70;;
25231;SDS011;13176;51.140;6.290;2022-07-03T14:03:22;19.42;;;18.45;;
25231;SDS011;13176;51.140;6.290;2022-07-03T14:05:48;18.95;;;17.98;;
25231;SDS011;13176;51.140;6.290;2022-07-03T14:08:18;17.63;;;16.67;;
25231;SDS011;13176;51.140;6.290;2022-07-03T14:10:45;20.15;;;18.98;;
25231;SDS011;13176;51.140;6.290;2022-07-03T14:13:15;20.38;;;19.33;;
25231;SDS011;13176;51.140;6.290;2022-07-03T14:15:42;16.90;;;16.00;;
25231;SDS011;13176;51.140;6.290;2022-07-03T14:18:08;16.35;;;15.45;;
25231;SDS011;13176;51.140;6.290;2022-07-03T14:20:35;18.42;;;17.38;;
25231;SDS011;13176;51.140;6.290;2022-07-03T14:23:01;18.85;;;17.95;;
25231;SDS011;13176;51.140;6.290;2022-07-03T14:25:28;18.10;;;17.15;;
25231;SDS011;13176;51.140;6.290;2022-07-03T14:27:54;18.58;;;17.48;;
25231;SDS011;13176;51.140;6.290;2022-07-03T14:30:39;17.30;;;16.25;;
25231;SDS011;13176;51.140;6.290;2022-07-03T14:35:51;16.48;;;15.65;;
25231;SDS011;13176;51.140;6.290;2022-07-03T14:38:18;15.90;;;15.00;;
25231;SDS011;13176;51.140;6.290;2022-07-03T14:40:45;12.10;;;11.40;;
25231;SDS011;13176;51.140;6.290;2022-07-03T14:43:12;11.65;;;10.85;;
25231;SDS011;13176;51.140;6.290;2022-07-03T14:45:38;11.48;;;10.77;;
25231;SDS011;13176;51.140;6.290;2022-07-03T14:48:07;10.35;;;9.85;;
25231;SDS011;13176;51.140;6.290;2022-07-03T14:50:35;12.52;;;11.82;;
25231;SDS011;13176;51.140;6.290;2022-07-03T14:53:02;17.58;;;16.58;;
25231;SDS011;13176;51.140;6.290;2022-07-03T14:55:31;15.82;;;15.10;;
25231;SDS011;13176;51.140;6.290;2022-07-03T14:58:09;13.95;;;12.68;;
25231;SDS011;13176;51.140;6.290;2022-07-03T15:00:38;12.60;;;11.90;;
25231;SDS011;13176;51.140;6.290;2022-07-03T15:03:10;13.95;;;13.15;;
25231;SDS011;13176;51.140;6.290;2022-07-03T15:05:44;12.80;;;12.00;;
25231;SDS011;13176;51.140;6.290;2022-07-03T15:10:45;13.85;;;12.95;;
25231;SDS011;13176;51.140;6.290;2022-07-03T15:13:11;14.05;;;13.25;;
25231;SDS011;13176;51.140;6.290;2022-07-03T15:15:40;10.13;;;9.63;;
25231;SDS011;13176;51.140;6.290;2022-07-03T15:18:11;11.82;;;10.75;;
25231;SDS011;13176;51.140;6.290;2022-07-03T15:20:39;12.30;;;11.60;;
25231;SDS011;13176;51.140;6.290;2022-07-03T15:23:06;13.32;;;12.63;;
25231;SDS011;13176;51.140;6.290;2022-07-03T15:25:33;11.95;;;11.25;;
25231;SDS011;13176;51.140;6.290;2022-07-03T15:28:03;14.50;;;13.55;;
25231;SDS011;13176;51.140;6.290;2022-07-03T15:30:30;11.27;;;10.65;;
25231;SDS011;13176;51.140;6.290;2022-07-03T15:32:57;12.02;;;11.40;;
25231;SDS011;13176;51.140;6.290;2022-07-03T15:35:24;12.25;;;11.57;;
25231;SDS011;13176;51.140;6.290;2022-07-03T15:40:45;12.70;;;11.98;;
25231;SDS011;13176;51.140;6.290;2022-07-03T15:48:34;8.65;;;8.02;;
25231;SDS011;13176;51.140;6.290;2022-07-03T15:53:48;9.02;;;7.35;;
25231;SDS011;13176;51.140;6.290;2022-07-03T15:56:21;9.63;;;9.18;;
25231;SDS011;13176;51.140;6.290;2022-07-03T15:58:59;9.50;;;8.90;;
25231;SDS011;13176;51.140;6.290;2022-07-03T16:01:28;10.82;;;10.10;;
25231;SDS011;13176;51.140;6.290;2022-07-03T16:04:27;11.05;;;10.43;;
25231;SDS011;13176;51.140;6.290;2022-07-03T16:06:55;11.18;;;10.50;;
25231;SDS011;13176;51.140;6.290;2022-07-03T16:09:21;10.18;;;9.68;;
25231;SDS011;13176;51.140;6.290;2022-07-03T16:11:48;10.10;;;9.60;;
25231;SDS011;13176;51.140;6.290;2022-07-03T16:14:16;14.02;;;13.25;;
25231;SDS011;13176;51.140;6.290;2022-07-03T16:16:44;10.23;;;9.63;;
25231;SDS011;13176;51.140;6.290;2022-07-03T16:19:13;8.93;;;8.32;;
25231;SDS011;13176;51.140;6.290;2022-07-03T16:21:40;7.32;;;6.93;;
25231;SDS011;13176;51.140;6.290;2022-07-03T16:24:07;7.68;;;7.28;;
25231;SDS011;13176;51.140;6.290;2022-07-03T16:26:36;7.40;;;7.00;;